Anderson, South Dakota
Current Conditions -  °F | °C
As of 12:53 AM on Sunday 21 Dec 2014 (Local Time) from KHEI Reporting Station
Broken Clouds Broken Clouds  
Wind Chill: 26°   Ceiling: 8500
Heat Index: 26°   Visibility: 10mi
Dew Point: 21°   Wind: 3mph
Humidity: 81%   Direction: 120°ESE
Pressure: 29.71"   Gusts: NA
Location:  45.2919°N, 102.298°W
Report Text: KHEI 210753Z AUTO 12003KT 10SM BKN085 M03/M06 A2971 RMK AO2 SLP080 T10331061
Loading
Personal Weather Stations






























Interactive Weather Map New forecast layout! Learn more

10-Day Weather Forecast

Advertisements
Track Severe Weather on mobile